Flight Track Log - Related Links

Times and Time Zones

All times are in EST time to prevent confusion due to time zone crossing. See the N81AU flight status page for this flight to view local times or setup timezone preferences in your user account.

Time Position Orientation Groundspeed Altitude Reporting Facility
EST Latitude Longitude Course Direction KTS MPH feet Rate Location/Type
Sun 04:10:17 PM 32.5833 -85.5167 220° Southwest 124 143 3,900  Level Atlanta TRACON
Sun 04:11:18 PM 32.5833 -85.5500 270° West 139 160 4,600 694 Climbing Atlanta TRACON
Sun 04:12:18 PM 32.5500 -85.5833 220° Southwest 147 169 5,300 287 Climbing Atlanta TRACON
Sun 04:14:00 PM 32.4969 -85.6340 220° Southwest  Level Estimated
Sun 04:15:00 PM 32.4614 -85.5866 220° Southwest  Level Estimated
Sun 04:21:00 PM 32.2779 -85.8419 220° Southwest  Level Estimated
Sun 04:22:00 PM 32.2432 -85.8657 210° Southwest  Level FlightAware Approximate
Sun 04:23:00 PM 32.2086 -85.8896 210° Southwest  Level FlightAware Approximate
Sun 04:23:08 PM 32.2033 -85.9222 210° Southwest 158 182 8,000  Level Jacksonville Center
Sun 04:23:56 PM 32.1756 -85.9483 219° Southwest 157 181 8,000 98 Level Jacksonville Center
Sun 04:24:00 PM 32.1739 -85.9134 210° Southwest  Level FlightAware Approximate
Sun 04:24:09 PM 32.1714 -85.9531 224° Southwest 159 183 8,100  Level Jacksonville Center
Sun 04:24:57 PM 32.1436 -85.9792 219° Southwest 156 180 8,000  Descending Jacksonville Center
Sun 04:25:00 PM 32.1392 -85.9372 210° Southwest  Level FlightAware Approximate
Sun 04:25:09 PM 32.1350 -85.9861 214° Southwest 154 177 8,100  Level Jacksonville Center
Sun 04:25:58 PM 32.1072 -86.0122 219° Southwest 158 182 8,000  Descending Jacksonville Center
Sun 04:26:00 PM 32.1046 -85.9609 210° Southwest  Level FlightAware Approximate
Sun 04:26:09 PM 32.1028 -86.0194 234° Southwest 161 185 8,100  Level Jacksonville Center
Sun 04:26:58 PM 32.0708 -86.0478 217° Southwest 158 182 8,000  Descending Jacksonville Center
Sun 04:27:00 PM 32.0699 -85.9847 210° Southwest  Level FlightAware Approximate
Sun 04:27:09 PM 32.0708 -86.0478 217° Southwest 161 185 8,100  Level Jacksonville Center
Sun 04:27:59 PM 32.0367 -86.0786 217° Southwest 160 184 8,000  Descending Jacksonville Center
Sun 04:28:00 PM 32.0352 -86.0084 210° Southwest  Level FlightAware Approximate
Sun 04:28:09 PM 32.0367 -86.0808 270° West 161 185 8,100  Level Jacksonville Center
Sun 04:28:59 PM 32.0025 -86.1117 217° Southwest 159 183 8,000  Descending Jacksonville Center
Sun 04:29:09 PM 32.0003 -86.1164 241° Southwest 161 185 8,100  Climbing Jacksonville Center
Sun 04:30:00 PM 31.9703 -86.1472 221° Southwest 158 182 8,000  Descending Jacksonville Center
Sun 04:30:09 PM 31.9681 -86.1494 220° Southwest 161 185 8,100 87 Climbing Jacksonville Center
Sun 04:31:09 PM 31.9339 -86.1803 217° Southwest 161 185 8,100 -51 Level Jacksonville Center
Sun 04:32:07 PM 31.8975 -86.2181 221° Southwest 158 182 8,000  Descending Jacksonville Center
Sun 04:32:09 PM 31.9017 -86.2158 24° Northeast 161 185 8,100 95 Climbing Jacksonville Center
Sun 04:33:10 PM 31.8675 -86.2464 217° Southwest 161 185 8,100  Level Jacksonville Center
Sun 04:34:09 PM 31.8331 -86.2792 219° Southwest 161 185 8,100 -86 Level Jacksonville Center
Sun 04:34:20 PM 31.8244 -86.2886 223° Southwest 155 178 8,000  Descending Jacksonville Center
Sun 04:35:09 PM 31.7989 -86.3122 218° Southwest 155 178 8,100  Climbing Jacksonville Center
Sun 04:35:21 PM 31.7883 -86.3217 217° Southwest 156 180 8,000  Descending Jacksonville Center
Sun 04:36:09 PM 31.7667 -86.3428 220° Southwest 155 178 8,100 56 Climbing Jacksonville Center
Sun 04:37:09 PM 31.7344 -86.3758 221° Southwest 161 185 8,100  Level Jacksonville Center
Sun 04:38:10 PM 31.7003 -86.4064 217° Southwest 161 185 8,100  Level Jacksonville Center
Sun 04:39:09 PM 31.6639 -86.4367 215° Southwest 161 185 8,100  Level Jacksonville Center
Sun 04:40:09 PM 31.6275 -86.4717 219° Southwest 161 185 8,100  Level Jacksonville Center
Sun 04:41:10 PM 31.5933 -86.4997 215° Southwest 161 185 8,100  Level Jacksonville Center
Sun 04:42:09 PM 31.5611 -86.5328 221° Southwest 161 185 8,100  Level Jacksonville Center
Sun 04:43:10 PM 31.5247 -86.5606 213° Southwest 161 185 8,100  Level Jacksonville Center
Sun 04:44:10 PM 31.4903 -86.5933 219° Southwest 161 185 8,100  Level Jacksonville Center
Sun 04:45:09 PM 31.4561 -86.6236 217° Southwest 161 185 8,100  Level Jacksonville Center
Sun 04:46:10 PM 31.4217 -86.6561 219° Southwest 161 185 8,100  Level Jacksonville Center
Sun 04:47:10 PM 31.3875 -86.6864 217° Southwest 161 185 8,100 -50 Level Jacksonville Center
Sun 04:48:10 PM 31.3531 -86.7192 219° Southwest 161 185 8,000 -50 Descending Jacksonville Center
Sun 04:49:10 PM 31.3186 -86.7494 217° Southwest 161 185 8,000 50 Level Jacksonville Center
Sun 04:50:10 PM 31.2822 -86.7819 217° Southwest 161 185 8,100 50 Climbing Jacksonville Center
Sun 04:51:10 PM 31.2500 -86.8144 221° Southwest 161 185 8,100  Level Jacksonville Center
Sun 04:52:10 PM 31.2136 -86.8444 215° Southwest 161 185 8,100  Level Jacksonville Center
Sun 04:53:09 PM 31.1792 -86.8772 219° Southwest 161 185 8,100 -58 Level Jacksonville Center
Sun 04:53:54 PM 31.1492 -86.9000 213° Southwest 159 183 8,000  Descending Jacksonville Center
Sun 04:54:10 PM 31.1428 -86.9072 224° Southwest 161 185 8,100  Climbing Jacksonville Center
Sun 04:55:13 PM 31.1039 -86.9419 217° Southwest 158 182 8,000  Descending Jacksonville Center
Sun 04:56:09 PM 31.0719 -86.9672 214° Southwest 161 185 8,100  Climbing Jacksonville Center
Sun 04:56:14 PM 31.0653 -86.9742 222° Southwest 160 184 8,000 -100 Descending Jacksonville Center
Sun 04:57:09 PM 31.0397 -86.9972 218° Southwest 161 185 8,000  Level Jacksonville Center
Sun 04:57:15 PM 31.0308 -87.0067 222° Southwest 160 184 8,000  Level Jacksonville Center
Sun 04:58:09 PM 31.0053 -87.0272 215° Southwest 161 185 8,000  Level Jacksonville Center
Sun 04:58:22 PM 30.9881 -87.0411 215° Southwest 162 186 8,000  Level Jacksonville Center
Sun 04:59:09 PM 30.9708 -87.0572 219° Southwest 161 185 8,000  Level Jacksonville Center
Sun 04:59:23 PM 30.9558 -87.0711 218° Southwest 159 183 8,000  Level Jacksonville Center
Sun 05:00:09 PM 30.9364 -87.0919 223° Southwest 161 185 8,000 -197 Level Jacksonville Center
Sun 05:00:24 PM 30.9169 -87.1058 212° Southwest 162 186 7,800 -500 Descending Jacksonville Center
Sun 05:01:09 PM 30.8975 -87.1267 223° Southwest 161 185 7,500 -393 Descending Jacksonville Center
Sun 05:01:25 PM 30.8803 -87.1403 214° Southwest 174 200 7,400 -295 Descending Jacksonville Center
Sun 05:02:10 PM 30.8611 -87.1589 220° Southwest 161 185 7,200 -400 Descending Jacksonville Center
Sun 05:02:25 PM 30.8417 -87.1750 215° Southwest 171 197 7,000 -514 Descending Jacksonville Center
Sun 05:03:20 PM 30.8114 -87.2097 225° Southwest 174 200 6,600 -393 Descending Jacksonville Center
Sun 05:04:27 PM 30.7703 -87.2467 218° Southwest 171 197 6,200 -422 Descending Jacksonville Center
Sun 05:05:28 PM 30.7314 -87.2836 219° Southwest 171 197 5,700 -466 Descending Jacksonville Center
Sun 05:06:23 PM 30.6972 -87.3133 217° Southwest 175 201 5,300 -417 Descending Jacksonville Center
Sun 05:07:23 PM 30.6581 -87.3525 221° Southwest 178 205 4,900 -417 Descending Jacksonville Center
Sun 05:08:18 PM 30.6239 -87.3800 215° Southwest 172 198 4,500 -414 Descending Jacksonville Center
Sun 05:09:19 PM 30.5828 -87.4189 219° Southwest 170 196 4,100 -259 Descending Jacksonville Center
Sun 05:10:14 PM 30.5525 -87.4464 218° Southwest 170 196 4,000 -94 Descending Jacksonville Center
Sun 05:11:26 PM 30.5075 -87.4828 215° Southwest 163 188 3,900 -180 Descending Jacksonville Center
Sun 05:12:27 PM 30.4706 -87.5197 221° Southwest 168 193 3,600 -295 Descending Jacksonville Center

Login

Don't have an account? Register now (free) for customized features, flight alerts, and more!